sensor_id;sensor_type;location;lat;lon;timestamp;P1;durP1;ratioP1;P2;durP2;ratioP2
9496;SDS011;4786;51.270;4.456;2023-11-21T00:00:26;17.70;;;12.90;;
9496;SDS011;4786;51.270;4.456;2023-11-21T00:02:52;16.03;;;12.77;;
9496;SDS011;4786;51.270;4.456;2023-11-21T00:05:18;13.80;;;11.97;;
9496;SDS011;4786;51.270;4.456;2023-11-21T00:07:44;12.63;;;11.33;;
9496;SDS011;4786;51.270;4.456;2023-11-21T00:10:11;15.93;;;12.13;;
9496;SDS011;4786;51.270;4.456;2023-11-21T00:12:39;15.80;;;13.00;;
9496;SDS011;4786;51.270;4.456;2023-11-21T00:15:07;15.07;;;12.70;;
9496;SDS011;4786;51.270;4.456;2023-11-21T00:17:39;18.17;;;13.67;;
9496;SDS011;4786;51.270;4.456;2023-11-21T00:20:06;14.37;;;12.23;;
9496;SDS011;4786;51.270;4.456;2023-11-21T00:22:36;16.37;;;12.50;;
9496;SDS011;4786;51.270;4.456;2023-11-21T00:25:02;12.57;;;11.17;;
9496;SDS011;4786;51.270;4.456;2023-11-21T00:27:31;13.43;;;11.47;;
9496;SDS011;4786;51.270;4.456;2023-11-21T00:29:57;13.63;;;12.20;;
9496;SDS011;4786;51.270;4.456;2023-11-21T00:32:24;11.60;;;10.40;;
9496;SDS011;4786;51.270;4.456;2023-11-21T00:34:49;12.13;;;10.87;;
9496;SDS011;4786;51.270;4.456;2023-11-21T00:37:16;12.70;;;11.40;;
9496;SDS011;4786;51.270;4.456;2023-11-21T00:39:44;12.43;;;11.27;;
9496;SDS011;4786;51.270;4.456;2023-11-21T00:42:11;13.63;;;12.23;;
9496;SDS011;4786;51.270;4.456;2023-11-21T00:44:39;14.13;;;11.93;;
9496;SDS011;4786;51.270;4.456;2023-11-21T00:47:05;12.37;;;11.07;;
9496;SDS011;4786;51.270;4.456;2023-11-21T00:49:31;14.87;;;12.60;;
9496;SDS011;4786;51.270;4.456;2023-11-21T00:51:57;13.00;;;11.50;;
9496;SDS011;4786;51.270;4.456;2023-11-21T00:54:23;14.03;;;11.70;;
9496;SDS011;4786;51.270;4.456;2023-11-21T00:56:49;14.43;;;11.60;;
9496;SDS011;4786;51.270;4.456;2023-11-21T00:59:15;15.47;;;12.37;;
9496;SDS011;4786;51.270;4.456;2023-11-21T01:01:41;15.60;;;11.77;;
9496;SDS011;4786;51.270;4.456;2023-11-21T01:04:07;15.43;;;12.77;;
9496;SDS011;4786;51.270;4.456;2023-11-21T01:06:34;17.57;;;12.63;;
9496;SDS011;4786;51.270;4.456;2023-11-21T01:09:00;15.27;;;12.20;;
9496;SDS011;4786;51.270;4.456;2023-11-21T01:11:26;15.30;;;13.17;;
9496;SDS011;4786;51.270;4.456;2023-11-21T01:13:51;13.80;;;12.37;;
9496;SDS011;4786;51.270;4.456;2023-11-21T01:16:18;13.63;;;12.20;;
9496;SDS011;4786;51.270;4.456;2023-11-21T01:18:44;13.07;;;11.63;;
9496;SDS011;4786;51.270;4.456;2023-11-21T01:21:10;16.83;;;12.17;;
9496;SDS011;4786;51.270;4.456;2023-11-21T01:23:36;14.43;;;12.30;;
9496;SDS011;4786;51.270;4.456;2023-11-21T01:26:02;12.90;;;11.60;;
9496;SDS011;4786;51.270;4.456;2023-11-21T01:28:28;17.37;;;12.77;;
9496;SDS011;4786;51.270;4.456;2023-11-21T01:30:54;14.93;;;12.77;;
9496;SDS011;4786;51.270;4.456;2023-11-21T01:33:21;16.33;;;12.63;;
9496;SDS011;4786;51.270;4.456;2023-11-21T01:35:49;13.43;;;11.87;;
9496;SDS011;4786;51.270;4.456;2023-11-21T01:38:16;13.20;;;11.10;;
9496;SDS011;4786;51.270;4.456;2023-11-21T01:40:42;16.33;;;12.73;;
9496;SDS011;4786;51.270;4.456;2023-11-21T01:43:08;15.87;;;12.87;;
9496;SDS011;4786;51.270;4.456;2023-11-21T01:45:34;14.57;;;12.40;;
9496;SDS011;4786;51.270;4.456;2023-11-21T01:48:00;14.73;;;11.73;;
9496;SDS011;4786;51.270;4.456;2023-11-21T01:50:28;12.70;;;11.47;;
9496;SDS011;4786;51.270;4.456;2023-11-21T01:52:54;16.23;;;11.97;;
9496;SDS011;4786;51.270;4.456;2023-11-21T01:55:21;14.17;;;12.33;;
9496;SDS011;4786;51.270;4.456;2023-11-21T01:57:46;13.20;;;11.87;;
9496;SDS011;4786;51.270;4.456;2023-11-21T02:00:13;16.50;;;13.47;;
9496;SDS011;4786;51.270;4.456;2023-11-21T02:02:44;16.87;;;13.43;;
9496;SDS011;4786;51.270;4.456;2023-11-21T02:05:11;15.27;;;13.13;;
9496;SDS011;4786;51.270;4.456;2023-11-21T02:07:39;16.10;;;13.43;;
9496;SDS011;4786;51.270;4.456;2023-11-21T02:10:06;14.40;;;12.83;;
9496;SDS011;4786;51.270;4.456;2023-11-21T02:12:32;15.70;;;12.93;;
9496;SDS011;4786;51.270;4.456;2023-11-21T02:15:00;13.40;;;12.00;;
9496;SDS011;4786;51.270;4.456;2023-11-21T02:17:28;16.47;;;13.47;;
9496;SDS011;4786;51.270;4.456;2023-11-21T02:19:54;14.43;;;12.93;;
9496;SDS011;4786;51.270;4.456;2023-11-21T02:22:19;14.77;;;12.80;;
9496;SDS011;4786;51.270;4.456;2023-11-21T02:24:46;17.40;;;13.77;;
9496;SDS011;4786;51.270;4.456;2023-11-21T02:27:12;16.93;;;13.37;;
9496;SDS011;4786;51.270;4.456;2023-11-21T02:29:38;16.80;;;13.20;;
9496;SDS011;4786;51.270;4.456;2023-11-21T02:32:05;14.23;;;12.70;;
9496;SDS011;4786;51.270;4.456;2023-11-21T02:34:31;13.40;;;12.00;;
9496;SDS011;4786;51.270;4.456;2023-11-21T02:36:59;13.87;;;12.47;;
9496;SDS011;4786;51.270;4.456;2023-11-21T02:39:25;16.07;;;12.57;;
9496;SDS011;4786;51.270;4.456;2023-11-21T02:41:52;16.23;;;13.30;;
9496;SDS011;4786;51.270;4.456;2023-11-21T02:44:18;13.03;;;11.70;;
9496;SDS011;4786;51.270;4.456;2023-11-21T02:46:44;15.50;;;12.97;;
9496;SDS011;4786;51.270;4.456;2023-11-21T02:49:10;17.90;;;14.73;;
9496;SDS011;4786;51.270;4.456;2023-11-21T02:51:36;16.20;;;13.13;;
9496;SDS011;4786;51.270;4.456;2023-11-21T02:54:05;15.03;;;13.53;;
9496;SDS011;4786;51.270;4.456;2023-11-21T02:56:33;15.10;;;13.30;;
9496;SDS011;4786;51.270;4.456;2023-11-21T02:58:59;18.97;;;14.40;;
9496;SDS011;4786;51.270;4.456;2023-11-21T03:01:26;15.50;;;14.00;;
9496;SDS011;4786;51.270;4.456;2023-11-21T03:03:53;15.20;;;13.47;;
9496;SDS011;4786;51.270;4.456;2023-11-21T03:06:20;17.93;;;14.53;;
9496;SDS011;4786;51.270;4.456;2023-11-21T03:08:46;17.70;;;14.83;;
9496;SDS011;4786;51.270;4.456;2023-11-21T03:11:12;16.90;;;14.50;;
9496;SDS011;4786;51.270;4.456;2023-11-21T03:13:41;18.40;;;15.07;;
9496;SDS011;4786;51.270;4.456;2023-11-21T03:16:08;17.90;;;14.73;;
9496;SDS011;4786;51.270;4.456;2023-11-21T03:18:35;16.27;;;14.53;;
9496;SDS011;4786;51.270;4.456;2023-11-21T03:21:02;17.60;;;14.90;;
9496;SDS011;4786;51.270;4.456;2023-11-21T03:23:28;16.33;;;14.63;;
9496;SDS011;4786;51.270;4.456;2023-11-21T03:25:54;17.53;;;15.70;;
9496;SDS011;4786;51.270;4.456;2023-11-21T03:28:20;16.27;;;14.53;;
9496;SDS011;4786;51.270;4.456;2023-11-21T03:30:46;15.70;;;14.03;;
9496;SDS011;4786;51.270;4.456;2023-11-21T03:33:11;17.83;;;15.00;;
9496;SDS011;4786;51.270;4.456;2023-11-21T03:35:38;19.03;;;14.87;;
9496;SDS011;4786;51.270;4.456;2023-11-21T03:38:03;15.87;;;14.27;;
9496;SDS011;4786;51.270;4.456;2023-11-21T03:40:29;16.90;;;13.80;;
9496;SDS011;4786;51.270;4.456;2023-11-21T03:42:56;18.40;;;15.13;;
9496;SDS011;4786;51.270;4.456;2023-11-21T03:45:22;16.37;;;14.67;;
9496;SDS011;4786;51.270;4.456;2023-11-21T03:47:48;15.73;;;14.17;;
9496;SDS011;4786;51.270;4.456;2023-11-21T03:50:15;18.00;;;15.50;;
9496;SDS011;4786;51.270;4.456;2023-11-21T03:52:41;15.00;;;13.40;;
9496;SDS011;4786;51.270;4.456;2023-11-21T03:55:06;14.83;;;13.37;;
9496;SDS011;4786;51.270;4.456;2023-11-21T03:57:32;15.53;;;13.93;;
9496;SDS011;4786;51.270;4.456;2023-11-21T03:59:59;16.50;;;14.33;;
9496;SDS011;4786;51.270;4.456;2023-11-21T04:02:24;15.97;;;12.90;;
9496;SDS011;4786;51.270;4.456;2023-11-21T04:04:51;13.93;;;12.53;;
9496;SDS011;4786;51.270;4.456;2023-11-21T04:07:17;16.00;;;14.33;;
9496;SDS011;4786;51.270;4.456;2023-11-21T04:09:43;15.47;;;13.83;;
9496;SDS011;4786;51.270;4.456;2023-11-21T04:12:09;16.83;;;14.30;;
9496;SDS011;4786;51.270;4.456;2023-11-21T04:14:35;16.90;;;14.43;;
9496;SDS011;4786;51.270;4.456;2023-11-21T04:17:01;15.67;;;13.93;;
9496;SDS011;4786;51.270;4.456;2023-11-21T04:19:29;16.30;;;14.37;;
9496;SDS011;4786;51.270;4.456;2023-11-21T04:21:55;18.30;;;14.37;;
9496;SDS011;4786;51.270;4.456;2023-11-21T04:24:21;16.63;;;14.47;;
9496;SDS011;4786;51.270;4.456;2023-11-21T04:26:47;15.93;;;13.83;;
9496;SDS011;4786;51.270;4.456;2023-11-21T04:29:12;16.93;;;14.93;;
9496;SDS011;4786;51.270;4.456;2023-11-21T04:31:39;16.87;;;15.03;;
9496;SDS011;4786;51.270;4.456;2023-11-21T04:34:05;15.63;;;13.47;;
9496;SDS011;4786;51.270;4.456;2023-11-21T04:36:30;16.10;;;14.27;;
9496;SDS011;4786;51.270;4.456;2023-11-21T04:38:56;16.47;;;14.70;;
9496;SDS011;4786;51.270;4.456;2023-11-21T04:41:22;17.57;;;14.10;;
9496;SDS011;4786;51.270;4.456;2023-11-21T04:43:48;15.43;;;13.90;;
9496;SDS011;4786;51.270;4.456;2023-11-21T04:46:14;16.43;;;14.70;;
9496;SDS011;4786;51.270;4.456;2023-11-21T04:48:40;15.93;;;14.20;;
9496;SDS011;4786;51.270;4.456;2023-11-21T04:51:06;17.47;;;14.50;;
9496;SDS011;4786;51.270;4.456;2023-11-21T04:53:31;16.87;;;14.43;;
9496;SDS011;4786;51.270;4.456;2023-11-21T04:55:57;16.40;;;14.63;;
9496;SDS011;4786;51.270;4.456;2023-11-21T04:58:23;16.67;;;14.63;;
9496;SDS011;4786;51.270;4.456;2023-11-21T05:00:49;17.37;;;14.87;;
9496;SDS011;4786;51.270;4.456;2023-11-21T05:03:15;19.57;;;14.87;;
9496;SDS011;4786;51.270;4.456;2023-11-21T05:05:41;18.90;;;14.47;;
9496;SDS011;4786;51.270;4.456;2023-11-21T05:08:07;16.73;;;14.47;;
9496;SDS011;4786;51.270;4.456;2023-11-21T05:10:33;15.00;;;12.93;;
9496;SDS011;4786;51.270;4.456;2023-11-21T05:12:59;17.40;;;14.80;;
9496;SDS011;4786;51.270;4.456;2023-11-21T05:15:25;15.97;;;13.70;;
9496;SDS011;4786;51.270;4.456;2023-11-21T05:17:52;16.23;;;14.20;;
9496;SDS011;4786;51.270;4.456;2023-11-21T05:20:19;19.90;;;14.83;;
9496;SDS011;4786;51.270;4.456;2023-11-21T05:22:48;16.03;;;14.33;;
9496;SDS011;4786;51.270;4.456;2023-11-21T05:25:15;14.97;;;13.50;;
9496;SDS011;4786;51.270;4.456;2023-11-21T05:27:43;17.47;;;14.50;;
9496;SDS011;4786;51.270;4.456;2023-11-21T05:30:09;16.20;;;14.47;;
9496;SDS011;4786;51.270;4.456;2023-11-21T05:32:37;17.47;;;14.50;;
9496;SDS011;4786;51.270;4.456;2023-11-21T05:35:04;17.20;;;13.97;;
9496;SDS011;4786;51.270;4.456;2023-11-21T05:37:37;15.13;;;13.50;;
9496;SDS011;4786;51.270;4.456;2023-11-21T05:40:05;15.40;;;13.77;;
9496;SDS011;4786;51.270;4.456;2023-11-21T05:42:32;18.63;;;14.53;;
9496;SDS011;4786;51.270;4.456;2023-11-21T05:44:59;16.77;;;15.07;;
9496;SDS011;4786;51.270;4.456;2023-11-21T05:47:34;17.87;;;15.40;;
9496;SDS011;4786;51.270;4.456;2023-11-21T05:50:07;20.00;;;14.57;;
9496;SDS011;4786;51.270;4.456;2023-11-21T05:52:40;16.50;;;14.30;;
9496;SDS011;4786;51.270;4.456;2023-11-21T05:55:07;16.80;;;14.80;;
9496;SDS011;4786;51.270;4.456;2023-11-21T05:57:34;17.60;;;15.07;;
9496;SDS011;4786;51.270;4.456;2023-11-21T06:00:04;17.07;;;14.17;;
9496;SDS011;4786;51.270;4.456;2023-11-21T06:02:43;19.97;;;15.60;;
9496;SDS011;4786;51.270;4.456;2023-11-21T06:05:10;15.93;;;14.13;;
9496;SDS011;4786;51.270;4.456;2023-11-21T06:07:36;20.80;;;17.07;;
9496;SDS011;4786;51.270;4.456;2023-11-21T06:10:03;20.03;;;15.27;;
9496;SDS011;4786;51.270;4.456;2023-11-21T06:12:34;24.60;;;20.50;;
9496;SDS011;4786;51.270;4.456;2023-11-21T06:15:04;22.30;;;16.90;;
9496;SDS011;4786;51.270;4.456;2023-11-21T06:17:33;20.00;;;16.97;;
9496;SDS011;4786;51.270;4.456;2023-11-21T06:20:01;20.30;;;17.07;;
9496;SDS011;4786;51.270;4.456;2023-11-21T06:22:34;19.37;;;16.80;;
9496;SDS011;4786;51.270;4.456;2023-11-21T06:25:10;20.27;;;16.73;;
9496;SDS011;4786;51.270;4.456;2023-11-21T06:27:47;19.00;;;16.77;;
9496;SDS011;4786;51.270;4.456;2023-11-21T06:30:13;19.60;;;17.43;;
9496;SDS011;4786;51.270;4.456;2023-11-21T06:32:40;16.80;;;15.13;;
9496;SDS011;4786;51.270;4.456;2023-11-21T06:35:07;18.97;;;16.63;;
9496;SDS011;4786;51.270;4.456;2023-11-21T06:37:36;21.33;;;17.47;;
9496;SDS011;4786;51.270;4.456;2023-11-21T06:40:02;18.60;;;15.13;;
9496;SDS011;4786;51.270;4.456;2023-11-21T06:42:32;19.57;;;16.03;;
9496;SDS011;4786;51.270;4.456;2023-11-21T06:44:58;21.90;;;16.10;;
9496;SDS011;4786;51.270;4.456;2023-11-21T06:47:27;19.40;;;17.33;;
9496;SDS011;4786;51.270;4.456;2023-11-21T06:49:54;20.97;;;17.50;;
9496;SDS011;4786;51.270;4.456;2023-11-21T06:52:20;19.67;;;16.73;;
9496;SDS011;4786;51.270;4.456;2023-11-21T06:54:47;22.97;;;17.77;;
9496;SDS011;4786;51.270;4.456;2023-11-21T06:57:14;22.03;;;17.70;;
9496;SDS011;4786;51.270;4.456;2023-11-21T06:59:41;20.33;;;16.73;;
9496;SDS011;4786;51.270;4.456;2023-11-21T07:02:07;19.97;;;17.77;;
9496;SDS011;4786;51.270;4.456;2023-11-21T07:04:34;19.63;;;16.00;;
9496;SDS011;4786;51.270;4.456;2023-11-21T07:07:02;23.60;;;18.23;;
9496;SDS011;4786;51.270;4.456;2023-11-21T07:09:29;19.97;;;17.73;;
9496;SDS011;4786;51.270;4.456;2023-11-21T07:11:56;18.93;;;15.67;;
9496;SDS011;4786;51.270;4.456;2023-11-21T07:14:22;19.20;;;17.10;;
9496;SDS011;4786;51.270;4.456;2023-11-21T07:16:48;18.73;;;16.47;;
9496;SDS011;4786;51.270;4.456;2023-11-21T07:19:13;20.77;;;16.43;;
9496;SDS011;4786;51.270;4.456;2023-11-21T07:21:39;21.07;;;17.07;;
9496;SDS011;4786;51.270;4.456;2023-11-21T07:24:06;22.13;;;17.63;;
9496;SDS011;4786;51.270;4.456;2023-11-21T07:26:33;21.13;;;17.20;;
9496;SDS011;4786;51.270;4.456;2023-11-21T07:28:59;20.80;;;16.87;;
9496;SDS011;4786;51.270;4.456;2023-11-21T07:31:25;23.33;;;17.60;;
9496;SDS011;4786;51.270;4.456;2023-11-21T07:33:51;22.97;;;18.03;;
9496;SDS011;4786;51.270;4.456;2023-11-21T07:36:18;22.50;;;16.83;;
9496;SDS011;4786;51.270;4.456;2023-11-21T07:38:45;20.23;;;17.03;;
9496;SDS011;4786;51.270;4.456;2023-11-21T07:41:12;17.77;;;15.97;;
9496;SDS011;4786;51.270;4.456;2023-11-21T07:43:40;19.43;;;17.33;;
9496;SDS011;4786;51.270;4.456;2023-11-21T07:46:06;19.17;;;15.40;;
9496;SDS011;4786;51.270;4.456;2023-11-21T07:48:33;18.83;;;16.80;;
9496;SDS011;4786;51.270;4.456;2023-11-21T07:50:59;20.30;;;17.60;;
9496;SDS011;4786;51.270;4.456;2023-11-21T07:53:26;21.17;;;17.43;;
9496;SDS011;4786;51.270;4.456;2023-11-21T07:55:54;19.47;;;16.03;;
9496;SDS011;4786;51.270;4.456;2023-11-21T07:58:20;23.03;;;17.67;;
9496;SDS011;4786;51.270;4.456;2023-11-21T08:00:46;22.57;;;18.63;;
9496;SDS011;4786;51.270;4.456;2023-11-21T08:03:13;18.70;;;16.67;;
9496;SDS011;4786;51.270;4.456;2023-11-21T08:05:39;22.20;;;18.23;;
9496;SDS011;4786;51.270;4.456;2023-11-21T08:08:05;21.53;;;18.33;;
9496;SDS011;4786;51.270;4.456;2023-11-21T08:10:30;23.17;;;18.20;;
9496;SDS011;4786;51.270;4.456;2023-11-21T08:12:56;20.03;;;16.77;;
9496;SDS011;4786;51.270;4.456;2023-11-21T08:15:23;22.03;;;16.80;;
9496;SDS011;4786;51.270;4.456;2023-11-21T08:17:49;19.97;;;17.57;;
9496;SDS011;4786;51.270;4.456;2023-11-21T08:20:15;24.13;;;16.50;;
9496;SDS011;4786;51.270;4.456;2023-11-21T08:22:43;23.50;;;18.20;;
9496;SDS011;4786;51.270;4.456;2023-11-21T08:25:10;27.37;;;19.63;;
9496;SDS011;4786;51.270;4.456;2023-11-21T08:27:36;22.00;;;16.50;;
9496;SDS011;4786;51.270;4.456;2023-11-21T08:30:02;20.20;;;17.80;;
9496;SDS011;4786;51.270;4.456;2023-11-21T08:32:29;27.07;;;18.90;;
9496;SDS011;4786;51.270;4.456;2023-11-21T08:34:58;25.50;;;17.80;;
9496;SDS011;4786;51.270;4.456;2023-11-21T08:37:25;23.70;;;17.80;;
9496;SDS011;4786;51.270;4.456;2023-11-21T08:39:57;27.33;;;17.33;;
9496;SDS011;4786;51.270;4.456;2023-11-21T08:42:24;22.50;;;16.10;;
9496;SDS011;4786;51.270;4.456;2023-11-21T08:44:50;20.07;;;14.50;;
9496;SDS011;4786;51.270;4.456;2023-11-21T08:47:16;22.30;;;14.83;;
9496;SDS011;4786;51.270;4.456;2023-11-21T08:49:41;20.40;;;14.50;;
9496;SDS011;4786;51.270;4.456;2023-11-21T08:52:07;18.27;;;12.27;;
9496;SDS011;4786;51.270;4.456;2023-11-21T08:54:33;17.33;;;12.50;;
9496;SDS011;4786;51.270;4.456;2023-11-21T08:56:59;14.13;;;12.63;;
9496;SDS011;4786;51.270;4.456;2023-11-21T08:59:25;27.63;;;12.30;;
9496;SDS011;4786;51.270;4.456;2023-11-21T09:01:52;12.33;;;10.93;;
9496;SDS011;4786;51.270;4.456;2023-11-21T09:04:17;12.07;;;10.83;;
9496;SDS011;4786;51.270;4.456;2023-11-21T09:06:43;18.33;;;11.63;;
9496;SDS011;4786;51.270;4.456;2023-11-21T09:09:09;12.03;;;10.83;;
9496;SDS011;4786;51.270;4.456;2023-11-21T09:11:35;15.77;;;11.30;;
9496;SDS011;4786;51.270;4.456;2023-11-21T09:14:02;20.47;;;10.57;;
9496;SDS011;4786;51.270;4.456;2023-11-21T09:16:28;13.03;;;10.43;;
9496;SDS011;4786;51.270;4.456;2023-11-21T09:18:55;13.97;;;10.37;;
9496;SDS011;4786;51.270;4.456;2023-11-21T09:21:21;14.57;;;10.40;;
9496;SDS011;4786;51.270;4.456;2023-11-21T09:23:47;14.47;;;10.80;;
9496;SDS011;4786;51.270;4.456;2023-11-21T09:26:14;15.53;;;11.00;;
9496;SDS011;4786;51.270;4.456;2023-11-21T09:28:41;16.00;;;11.17;;
9496;SDS011;4786;51.270;4.456;2023-11-21T09:31:11;14.90;;;10.57;;
9496;SDS011;4786;51.270;4.456;2023-11-21T09:33:37;18.73;;;11.30;;
9496;SDS011;4786;51.270;4.456;2023-11-21T09:36:03;20.43;;;11.83;;
9496;SDS011;4786;51.270;4.456;2023-11-21T09:38:30;15.33;;;10.47;;
9496;SDS011;4786;51.270;4.456;2023-11-21T09:40:56;20.50;;;10.90;;
9496;SDS011;4786;51.270;4.456;2023-11-21T09:43:23;17.07;;;11.57;;
9496;SDS011;4786;51.270;4.456;2023-11-21T09:45:54;15.63;;;10.57;;
9496;SDS011;4786;51.270;4.456;2023-11-21T09:48:24;18.73;;;11.77;;
9496;SDS011;4786;51.270;4.456;2023-11-21T09:50:51;14.67;;;10.67;;
9496;SDS011;4786;51.270;4.456;2023-11-21T09:53:21;17.47;;;11.83;;
9496;SDS011;4786;51.270;4.456;2023-11-21T09:55:50;14.30;;;10.90;;
9496;SDS011;4786;51.270;4.456;2023-11-21T09:58:17;18.10;;;11.40;;
9496;SDS011;4786;51.270;4.456;2023-11-21T10:00:48;13.87;;;10.40;;
9496;SDS011;4786;51.270;4.456;2023-11-21T10:03:17;16.27;;;10.93;;
9496;SDS011;4786;51.270;4.456;2023-11-21T10:05:43;14.33;;;9.93;;
9496;SDS011;4786;51.270;4.456;2023-11-21T10:08:11;13.40;;;9.73;;
9496;SDS011;4786;51.270;4.456;2023-11-21T10:10:38;14.33;;;9.87;;
9496;SDS011;4786;51.270;4.456;2023-11-21T10:13:13;14.50;;;9.93;;
9496;SDS011;4786;51.270;4.456;2023-11-21T10:15:42;14.87;;;10.30;;
9496;SDS011;4786;51.270;4.456;2023-11-21T10:18:13;13.13;;;9.93;;
9496;SDS011;4786;51.270;4.456;2023-11-21T10:20:44;16.40;;;9.23;;
9496;SDS011;4786;51.270;4.456;2023-11-21T10:23:16;8.60;;;7.70;;
9496;SDS011;4786;51.270;4.456;2023-11-21T10:25:47;11.70;;;7.97;;
9496;SDS011;4786;51.270;4.456;2023-11-21T10:28:14;10.93;;;7.67;;
9496;SDS011;4786;51.270;4.456;2023-11-21T10:30:40;9.60;;;7.47;;
9496;SDS011;4786;51.270;4.456;2023-11-21T10:33:07;12.97;;;8.23;;
9496;SDS011;4786;51.270;4.456;2023-11-21T10:35:48;11.97;;;7.70;;
9496;SDS011;4786;51.270;4.456;2023-11-21T10:38:21;10.73;;;7.10;;
9496;SDS011;4786;51.270;4.456;2023-11-21T10:40:49;12.23;;;6.70;;
9496;SDS011;4786;51.270;4.456;2023-11-21T10:43:15;8.27;;;7.03;;
9496;SDS011;4786;51.270;4.456;2023-11-21T10:45:42;9.27;;;7.00;;
9496;SDS011;4786;51.270;4.456;2023-11-21T10:48:10;9.60;;;7.00;;
9496;SDS011;4786;51.270;4.456;2023-11-21T10:50:40;8.33;;;7.10;;
9496;SDS011;4786;51.270;4.456;2023-11-21T10:53:06;7.73;;;6.77;;
9496;SDS011;4786;51.270;4.456;2023-11-21T10:55:32;10.27;;;6.63;;
9496;SDS011;4786;51.270;4.456;2023-11-21T10:57:59;8.47;;;6.77;;
9496;SDS011;4786;51.270;4.456;2023-11-21T11:00:30;7.67;;;6.03;;
9496;SDS011;4786;51.270;4.456;2023-11-21T11:02:57;7.63;;;5.93;;
9496;SDS011;4786;51.270;4.456;2023-11-21T11:05:24;9.10;;;4.97;;
9496;SDS011;4786;51.270;4.456;2023-11-21T11:08:02;7.43;;;5.30;;
9496;SDS011;4786;51.270;4.456;2023-11-21T11:10:30;5.83;;;4.47;;
9496;SDS011;4786;51.270;4.456;2023-11-21T11:12:57;5.70;;;5.10;;
9496;SDS011;4786;51.270;4.456;2023-11-21T11:15:24;9.77;;;5.27;;
9496;SDS011;4786;51.270;4.456;2023-11-21T11:17:52;5.80;;;4.77;;
9496;SDS011;4786;51.270;4.456;2023-11-21T11:20:21;5.33;;;4.80;;
9496;SDS011;4786;51.270;4.456;2023-11-21T11:31:14;5.53;;;4.03;;
9496;SDS011;4786;51.270;4.456;2023-11-21T11:37:02;5.63;;;4.50;;
9496;SDS011;4786;51.270;4.456;2023-11-21T11:39:35;6.90;;;5.57;;
9496;SDS011;4786;51.270;4.456;2023-11-21T11:42:03;6.57;;;5.23;;
9496;SDS011;4786;51.270;4.456;2023-11-21T11:47:15;8.73;;;5.70;;
9496;SDS011;4786;51.270;4.456;2023-11-21T11:55:36;7.47;;;5.73;;
9496;SDS011;4786;51.270;4.456;2023-11-21T11:58:04;12.13;;;6.20;;
9496;SDS011;4786;51.270;4.456;2023-11-21T12:00:35;6.23;;;5.03;;
9496;SDS011;4786;51.270;4.456;2023-11-21T12:03:06;8.20;;;5.10;;
9496;SDS011;4786;51.270;4.456;2023-11-21T12:05:33;8.83;;;4.83;;
9496;SDS011;4786;51.270;4.456;2023-11-21T12:08:10;6.97;;;5.10;;
9496;SDS011;4786;51.270;4.456;2023-11-21T12:10:37;5.50;;;5.00;;
9496;SDS011;4786;51.270;4.456;2023-11-21T12:13:06;9.27;;;5.30;;
9496;SDS011;4786;51.270;4.456;2023-11-21T12:15:33;5.13;;;4.63;;
9496;SDS011;4786;51.270;4.456;2023-11-21T12:18:00;5.67;;;4.00;;
9496;SDS011;4786;51.270;4.456;2023-11-21T12:20:27;6.03;;;4.80;;
9496;SDS011;4786;51.270;4.456;2023-11-21T12:22:54;5.53;;;5.00;;
9496;SDS011;4786;51.270;4.456;2023-11-21T12:25:30;5.03;;;4.60;;
9496;SDS011;4786;51.270;4.456;2023-11-21T12:28:02;6.20;;;4.67;;
9496;SDS011;4786;51.270;4.456;2023-11-21T12:30:29;4.83;;;4.10;;
9496;SDS011;4786;51.270;4.456;2023-11-21T12:32:56;4.13;;;3.83;;
9496;SDS011;4786;51.270;4.456;2023-11-21T12:35:27;3.80;;;3.50;;
9496;SDS011;4786;51.270;4.456;2023-11-21T12:37:55;4.53;;;3.43;;
9496;SDS011;4786;51.270;4.456;2023-11-21T12:40:24;3.90;;;3.50;;
9496;SDS011;4786;51.270;4.456;2023-11-21T12:42:55;3.10;;;2.90;;
9496;SDS011;4786;51.270;4.456;2023-11-21T12:45:23;3.53;;;3.00;;
9496;SDS011;4786;51.270;4.456;2023-11-21T12:50:26;3.83;;;3.50;;
9496;SDS011;4786;51.270;4.456;2023-11-21T12:55:34;3.50;;;3.20;;
9496;SDS011;4786;51.270;4.456;2023-11-21T12:58:02;3.50;;;3.17;;
9496;SDS011;4786;51.270;4.456;2023-11-21T13:00:42;4.97;;;3.60;;
9496;SDS011;4786;51.270;4.456;2023-11-21T13:03:11;3.87;;;3.43;;
9496;SDS011;4786;51.270;4.456;2023-11-21T13:05:40;5.50;;;3.30;;
9496;SDS011;4786;51.270;4.456;2023-11-21T13:08:15;4.97;;;3.57;;
9496;SDS011;4786;51.270;4.456;2023-11-21T13:10:44;4.00;;;3.60;;
9496;SDS011;4786;51.270;4.456;2023-11-21T13:13:12;4.77;;;4.37;;
9496;SDS011;4786;51.270;4.456;2023-11-21T13:15:49;4.70;;;3.97;;
9496;SDS011;4786;51.270;4.456;2023-11-21T13:18:21;3.80;;;3.40;;
9496;SDS011;4786;51.270;4.456;2023-11-21T13:20:48;4.20;;;3.80;;
9496;SDS011;4786;51.270;4.456;2023-11-21T13:23:14;5.17;;;4.30;;
9496;SDS011;4786;51.270;4.456;2023-11-21T13:25:43;4.37;;;4.00;;
9496;SDS011;4786;51.270;4.456;2023-11-21T13:28:10;5.10;;;4.30;;
9496;SDS011;4786;51.270;4.456;2023-11-21T13:30:37;4.93;;;3.73;;
9496;SDS011;4786;51.270;4.456;2023-11-21T13:33:05;4.77;;;4.37;;
9496;SDS011;4786;51.270;4.456;2023-11-21T13:35:36;5.27;;;4.70;;
9496;SDS011;4786;51.270;4.456;2023-11-21T13:38:05;5.90;;;4.90;;
9496;SDS011;4786;51.270;4.456;2023-11-21T13:40:32;5.20;;;4.70;;
9496;SDS011;4786;51.270;4.456;2023-11-21T13:43:04;5.97;;;5.37;;
9496;SDS011;4786;51.270;4.456;2023-11-21T13:45:34;7.03;;;4.93;;
9496;SDS011;4786;51.270;4.456;2023-11-21T13:48:05;5.73;;;5.10;;
9496;SDS011;4786;51.270;4.456;2023-11-21T13:50:38;5.60;;;5.00;;
9496;SDS011;4786;51.270;4.456;2023-11-21T13:53:20;6.27;;;5.67;;
9496;SDS011;4786;51.270;4.456;2023-11-21T13:55:58;6.97;;;5.83;;
9496;SDS011;4786;51.270;4.456;2023-11-21T13:58:24;5.67;;;5.17;;
9496;SDS011;4786;51.270;4.456;2023-11-21T14:01:04;6.50;;;5.13;;
9496;SDS011;4786;51.270;4.456;2023-11-21T14:03:38;8.70;;;5.83;;
9496;SDS011;4786;51.270;4.456;2023-11-21T14:06:04;7.70;;;5.30;;
9496;SDS011;4786;51.270;4.456;2023-11-21T14:08:39;5.77;;;5.20;;
9496;SDS011;4786;51.270;4.456;2023-11-21T14:11:08;5.67;;;5.03;;
9496;SDS011;4786;51.270;4.456;2023-11-21T14:13:36;8.40;;;5.10;;
9496;SDS011;4786;51.270;4.456;2023-11-21T14:16:02;6.87;;;5.40;;
9496;SDS011;4786;51.270;4.456;2023-11-21T14:18:31;6.07;;;5.07;;
9496;SDS011;4786;51.270;4.456;2023-11-21T14:21:04;5.57;;;5.07;;
9496;SDS011;4786;51.270;4.456;2023-11-21T14:23:30;5.97;;;4.83;;
9496;SDS011;4786;51.270;4.456;2023-11-21T14:25:58;5.83;;;5.20;;
9496;SDS011;4786;51.270;4.456;2023-11-21T14:28:26;6.43;;;5.43;;
9496;SDS011;4786;51.270;4.456;2023-11-21T14:30:52;7.00;;;5.27;;
9496;SDS011;4786;51.270;4.456;2023-11-21T14:33:18;6.63;;;5.13;;
9496;SDS011;4786;51.270;4.456;2023-11-21T14:35:44;5.77;;;5.00;;
9496;SDS011;4786;51.270;4.456;2023-11-21T14:38:11;5.43;;;4.67;;
9496;SDS011;4786;51.270;4.456;2023-11-21T14:40:39;5.20;;;4.70;;
9496;SDS011;4786;51.270;4.456;2023-11-21T14:43:06;5.00;;;4.43;;
9496;SDS011;4786;51.270;4.456;2023-11-21T14:45:32;5.47;;;4.73;;
9496;SDS011;4786;51.270;4.456;2023-11-21T14:47:58;6.13;;;5.17;;
9496;SDS011;4786;51.270;4.456;2023-11-21T14:50:34;5.97;;;5.03;;
9496;SDS011;4786;51.270;4.456;2023-11-21T14:53:03;6.90;;;5.43;;
9496;SDS011;4786;51.270;4.456;2023-11-21T14:55:31;5.00;;;4.50;;
9496;SDS011;4786;51.270;4.456;2023-11-21T14:58:18;5.77;;;4.53;;
9496;SDS011;4786;51.270;4.456;2023-11-21T15:00:54;7.07;;;5.37;;
9496;SDS011;4786;51.270;4.456;2023-11-21T15:03:25;9.27;;;6.13;;
9496;SDS011;4786;51.270;4.456;2023-11-21T15:05:58;6.23;;;5.63;;
9496;SDS011;4786;51.270;4.456;2023-11-21T15:08:48;6.90;;;6.20;;
9496;SDS011;4786;51.270;4.456;2023-11-21T15:11:24;7.23;;;5.90;;
9496;SDS011;4786;51.270;4.456;2023-11-21T15:13:55;7.10;;;6.30;;
9496;SDS011;4786;51.270;4.456;2023-11-21T15:16:22;7.73;;;6.80;;
9496;SDS011;4786;51.270;4.456;2023-11-21T15:18:48;8.70;;;6.60;;
9496;SDS011;4786;51.270;4.456;2023-11-21T15:21:14;6.70;;;6.00;;
9496;SDS011;4786;51.270;4.456;2023-11-21T15:23:40;7.57;;;6.73;;